Time;durP1;ratioP1;P1;durP2;ratioP2;P2;SDS_P1;SDS_P2;PMS_P1;PMS_P2;Temp;Humidity;BMP_temperature;BMP_pressure;BME280_temperature;BME280_humidity;BME280_pressure;Samples;Min_cycle;Max_cycle;Signal;HPM_P1;HPM_P2
2023/03/27 00:01:05;;;;;;;0.10;0.05;;;2.00;99.90;;;;;;5080840;28;20079;-85
2023/03/27 00:03:31;;;;;;;0.00;0.00;;;2.10;99.90;;;;;;5081191;28;20050;-85
2023/03/27 00:06:10;;;;;;;0.00;0.00;;;2.10;99.90;;;;;;5080192;28;20039;-84
2023/03/27 00:08:37;;;;;;;0.20;0.10;;;2.10;99.90;;;;;;5081031;28;20048;-84
2023/03/27 00:11:04;;;;;;;0.10;0.10;;;2.60;99.90;;;;;;5097267;28;20079;-85
2023/03/27 00:13:30;;;;;;;0.00;0.00;;;2.10;99.90;;;;;;5097302;28;20043;-85
2023/03/27 00:15:57;;;;;;;0.87;0.10;;;2.10;99.90;;;;;;5080353;28;20039;-85
2023/03/27 00:18:23;;;;;;;0.05;0.05;;;2.50;99.90;;;;;;5080765;28;20051;-84
2023/03/27 00:20:50;;;;;;;0.20;0.20;;;3.40;99.90;;;;;;5062435;28;20585;-86
2023/03/27 00:23:18;;;;;;;0.00;0.00;;;3.50;99.90;;;;;;5080689;28;20562;-85
2023/03/27 00:25:50;;;;;;;0.00;0.00;;;2.30;99.90;;;;;;5080838;28;20040;-84
2023/03/27 00:28:19;;;;;;;0.00;0.00;;;2.30;99.90;;;;;;5097122;28;20059;-85
2023/03/27 00:30:46;;;;;;;0.00;0.00;;;2.40;99.90;;;;;;5063897;28;20043;-84
2023/03/27 00:33:15;;;;;;;0.17;0.00;;;2.40;99.90;;;;;;5096281;28;20403;-84
2023/03/27 00:35:48;;;;;;;0.10;0.10;;;2.40;99.90;;;;;;5079915;28;20058;-84
2023/03/27 00:38:15;;;;;;;0.00;0.00;;;2.30;99.90;;;;;;5079757;28;20101;-84
2023/03/27 00:40:45;;;;;;;0.00;0.00;;;2.80;99.90;;;;;;5080110;28;20047;-84
2023/03/27 00:43:34;;;;;;;0.00;0.00;;;3.70;99.90;;;;;;5096456;28;20092;-85
2023/03/27 00:46:03;;;;;;;0.05;0.05;;;2.20;99.90;;;;;;5096666;28;20520;-85
2023/03/27 00:48:32;;;;;;;0.00;0.00;;;2.20;99.90;;;;;;5079932;28;20179;-84
2023/03/27 00:50:58;;;;;;;0.20;0.20;;;2.40;99.90;;;;;;5079732;28;20079;-85
2023/03/27 00:53:27;;;;;;;0.20;0.10;;;2.20;99.90;;;;;;5079484;28;20054;-84
2023/03/27 00:55:57;;;;;;;0.00;0.00;;;2.30;99.90;;;;;;5079402;28;20396;-87
2023/03/27 00:58:30;;;;;;;0.10;0.10;;;2.20;99.90;;;;;;5097151;28;20043;-84
2023/03/27 01:00:57;;;;;;;0.20;0.00;;;2.10;99.90;;;;;;5096276;28;20044;-85
2023/03/27 01:03:28;;;;;;;0.00;0.00;;;2.10;99.90;;;;;;5079477;28;20047;-85
2023/03/27 01:05:56;;;;;;;0.05;0.05;;;2.80;99.90;;;;;;5096530;28;20041;-87
2023/03/27 01:08:24;;;;;;;0.10;0.10;;;2.00;99.90;;;;;;5085569;28;20058;-84
2023/03/27 01:11:30;;;;;;;0.10;0.10;;;1.20;99.90;;;;;;5101994;28;20047;-84
2023/03/27 01:14:04;;;;;;;0.00;0.00;;;1.90;99.90;;;;;;5078991;28;20046;-85
2023/03/27 01:16:56;;;;;;;0.00;0.00;;;1.90;99.90;;;;;;5079646;28;20054;-85
2023/03/27 01:19:46;;;;;;;0.52;0.52;;;1.90;99.90;;;;;;5063406;28;20424;-85
2023/03/27 01:23:01;;;;;;;0.00;0.00;;;1.80;99.90;;;;;;5095387;28;20406;-84
2023/03/27 01:25:48;;;;;;;0.05;0.05;;;1.90;99.90;;;;;;5079608;28;20051;-85
2023/03/27 01:28:20;;;;;;;0.00;0.00;;;1.90;99.90;;;;;;5078770;28;20086;-84
2023/03/27 01:31:11;;;;;;;0.70;0.20;;;1.90;99.90;;;;;;5095807;28;20075;-84
2023/03/27 01:34:22;;;;;;;0.03;0.03;;;1.90;99.90;;;;;;5057444;28;20044;-83
2023/03/27 01:37:11;;;;;;;0.08;0.05;;;1.90;99.90;;;;;;5063288;28;20055;-83
2023/03/27 01:39:46;;;;;;;0.00;0.00;;;1.80;99.90;;;;;;5096113;28;20044;-84
2023/03/27 01:42:20;;;;;;;0.17;0.17;;;1.80;99.90;;;;;;5095701;28;20143;-84
2023/03/27 01:44:48;;;;;;;0.00;0.00;;;1.80;99.90;;;;;;5078743;28;20156;-84
2023/03/27 01:47:30;;;;;;;0.65;0.08;;;1.80;99.90;;;;;;5078423;28;20055;-84
2023/03/27 01:50:17;;;;;;;0.00;0.00;;;1.80;99.90;;;;;;5078704;28;20044;-84
2023/03/27 01:52:51;;;;;;;0.00;0.00;;;1.80;99.90;;;;;;5078788;28;20047;-84
2023/03/27 01:55:23;;;;;;;0.00;0.00;;;1.70;99.90;;;;;;5078540;28;20044;-84
2023/03/27 01:58:27;;;;;;;0.00;0.00;;;1.80;99.90;;;;;;5078878;28;20539;-84
2023/03/27 02:01:00;;;;;;;0.00;0.00;;;1.70;99.90;;;;;;5058044;28;20109;-84
2023/03/27 02:03:40;;;;;;;0.00;0.00;;;1.80;99.90;;;;;;5078082;28;20100;-84
2023/03/27 02:06:15;;;;;;;0.10;0.10;;;2.00;99.90;;;;;;5078250;28;20051;-85
2023/03/27 02:09:02;;;;;;;0.00;0.00;;;1.70;99.90;;;;;;5078466;28;20146;-84
2023/03/27 02:11:33;;;;;;;0.00;0.00;;;1.70;99.90;;;;;;5078746;28;20073;-84
2023/03/27 02:14:05;;;;;;;0.00;0.00;;;1.70;99.90;;;;;;5095320;28;20043;-84
2023/03/27 02:16:34;;;;;;;0.00;0.00;;;1.70;99.90;;;;;;5078784;28;20111;-84
2023/03/27 02:19:06;;;;;;;0.00;0.00;;;1.70;99.90;;;;;;5095324;28;20044;-84
2023/03/27 02:21:32;;;;;;;0.00;0.00;;;1.70;99.90;;;;;;5078783;28;20054;-84
2023/03/27 02:24:00;;;;;;;0.00;0.00;;;1.70;99.90;;;;;;5078658;28;20044;-85
2023/03/27 02:26:30;;;;;;;0.00;0.00;;;1.60;99.90;;;;;;5078334;28;20070;-85
2023/03/27 02:29:14;;;;;;;0.00;0.00;;;1.60;99.90;;;;;;5077837;28;20481;-85
2023/03/27 02:31:51;;;;;;;0.00;0.00;;;1.60;99.90;;;;;;5078495;28;20450;-84
2023/03/27 02:34:24;;;;;;;0.00;0.00;;;1.70;99.90;;;;;;5093982;28;20043;-85
2023/03/27 02:37:28;;;;;;;0.00;0.00;;;2.40;99.90;;;;;;5095321;28;20535;-84
2023/03/27 02:40:21;;;;;;;1.08;0.10;;;1.60;99.90;;;;;;5078182;28;20048;-85
2023/03/27 02:42:47;;;;;;;0.00;0.00;;;1.50;99.90;;;;;;5078961;28;20561;-84
2023/03/27 02:45:35;;;;;;;0.13;0.13;;;1.50;99.90;;;;;;5081694;28;20142;-85
2023/03/27 02:48:26;;;;;;;0.05;0.00;;;1.50;99.90;;;;;;5099509;28;20131;-85
2023/03/27 02:51:00;;;;;;;0.10;0.10;;;1.80;99.90;;;;;;5082254;28;20101;-85
2023/03/27 02:53:29;;;;;;;0.00;0.00;;;1.60;99.90;;;;;;5098770;28;20397;-85
2023/03/27 02:56:00;;;;;;;0.05;0.05;;;1.60;99.90;;;;;;5082121;28;20405;-85
2023/03/27 02:58:48;;;;;;;0.00;0.00;;;2.70;99.90;;;;;;5098580;28;20058;-85
2023/03/27 03:01:18;;;;;;;0.00;0.00;;;2.30;99.90;;;;;;5098384;28;20043;-85
2023/03/27 03:03:52;;;;;;;0.00;0.00;;;1.80;99.90;;;;;;5098961;28;20051;-85
2023/03/27 03:06:20;;;;;;;0.00;0.00;;;2.50;99.90;;;;;;5107038;28;20044;-85
2023/03/27 03:08:46;;;;;;;3.95;0.90;;;2.10;99.90;;;;;;5098792;28;20050;-85
2023/03/27 03:11:13;;;;;;;0.38;0.08;;;1.80;99.90;;;;;;5064847;28;20047;-86
2023/03/27 03:13:40;;;;;;;0.00;0.00;;;2.40;99.90;;;;;;5098649;28;20035;-84
2023/03/27 03:16:07;;;;;;;0.00;0.00;;;1.80;99.90;;;;;;5081757;28;20043;-85
2023/03/27 03:18:33;;;;;;;0.00;0.00;;;1.80;99.90;;;;;;5081213;28;20074;-85
2023/03/27 03:20:59;;;;;;;0.00;0.00;;;1.80;99.90;;;;;;5081617;28;20454;-84
2023/03/27 03:23:26;;;;;;;0.08;0.08;;;2.00;99.90;;;;;;5081412;28;20052;-85
2023/03/27 03:25:55;;;;;;;0.35;0.35;;;1.70;99.90;;;;;;5098336;28;20040;-85
2023/03/27 03:28:27;;;;;;;0.00;0.00;;;1.70;99.90;;;;;;5081096;28;20047;-85
2023/03/27 03:30:53;;;;;;;0.20;0.20;;;1.70;99.90;;;;;;5065302;28;20048;-85
2023/03/27 03:33:20;;;;;;;0.00;0.00;;;1.60;99.90;;;;;;5097350;28;20482;-85
2023/03/27 03:35:49;;;;;;;0.20;0.00;;;1.80;99.90;;;;;;5097908;28;20043;-84
2023/03/27 03:38:24;;;;;;;0.08;0.03;;;1.50;99.90;;;;;;5080934;28;20100;-88
2023/03/27 03:40:53;;;;;;;0.10;0.10;;;2.00;99.90;;;;;;5065541;28;20489;-84
2023/03/27 03:43:21;;;;;;;0.00;0.00;;;2.30;99.90;;;;;;5081227;28;20122;-85
2023/03/27 03:45:47;;;;;;;0.00;0.00;;;1.50;99.90;;;;;;5081344;28;20047;-84
2023/03/27 03:48:13;;;;;;;0.08;0.08;;;1.40;99.90;;;;;;5081446;28;20100;-84
2023/03/27 03:50:38;;;;;;;0.47;0.20;;;1.40;99.90;;;;;;5064211;28;20055;-84
2023/03/27 03:53:04;;;;;;;14.13;0.80;;;1.40;99.90;;;;;;5064182;28;20044;-84
2023/03/27 03:55:32;;;;;;;0.00;0.00;;;1.30;99.90;;;;;;5079539;28;20051;-84
2023/03/27 03:57:58;;;;;;;0.00;0.00;;;1.40;99.90;;;;;;5067132;28;20052;-84
2023/03/27 04:00:24;;;;;;;0.00;0.00;;;1.30;99.90;;;;;;5080921;28;20053;-85
2023/03/27 04:02:52;;;;;;;0.17;0.17;;;2.30;99.90;;;;;;5098392;28;20408;-84
2023/03/27 04:05:18;;;;;;;0.90;0.10;;;1.20;99.90;;;;;;5080633;28;20048;-86
2023/03/27 04:07:44;;;;;;;0.00;0.00;;;1.20;99.90;;;;;;5097083;28;20459;-84
2023/03/27 04:10:12;;;;;;;0.00;0.00;;;1.60;99.90;;;;;;5064376;28;20483;-84
2023/03/27 04:12:38;;;;;;;0.00;0.00;;;1.10;99.90;;;;;;5097421;28;20686;-84
2023/03/27 04:15:04;;;;;;;0.00;0.00;;;2.30;99.90;;;;;;5064433;28;20393;-85
2023/03/27 04:17:32;;;;;;;0.00;0.00;;;1.10;99.90;;;;;;5097610;28;20130;-85
2023/03/27 04:19:58;;;;;;;0.00;0.00;;;1.50;99.90;;;;;;5064108;28;20059;-84
2023/03/27 04:22:25;;;;;;;1.20;0.20;;;1.20;99.90;;;;;;5080099;28;20058;-85
2023/03/27 04:24:52;;;;;;;0.00;0.00;;;1.10;99.90;;;;;;5080877;28;20051;-84
2023/03/27 04:27:20;;;;;;;0.47;0.03;;;2.20;99.90;;;;;;5080941;28;20087;-84
2023/03/27 04:29:46;;;;;;;0.10;0.10;;;1.80;99.90;;;;;;5096901;28;20485;-84
2023/03/27 04:32:18;;;;;;;0.00;0.00;;;1.10;99.90;;;;;;5080303;28;20044;-85
2023/03/27 04:34:45;;;;;;;1.65;0.05;;;2.50;99.90;;;;;;5096199;28;20054;-85
2023/03/27 04:37:14;;;;;;;0.00;0.00;;;2.10;99.90;;;;;;5080089;28;20432;-84
2023/03/27 04:39:45;;;;;;;0.00;0.00;;;1.30;99.90;;;;;;5096623;28;20100;-84
2023/03/27 04:42:14;;;;;;;0.00;0.00;;;1.20;99.90;;;;;;5080330;28;20120;-85
2023/03/27 04:44:40;;;;;;;0.10;0.10;;;1.30;99.90;;;;;;5079995;28;20043;-84
2023/03/27 04:47:09;;;;;;;0.00;0.00;;;1.40;99.90;;;;;;5079819;28;20054;-85
2023/03/27 04:49:39;;;;;;;0.00;0.00;;;1.40;99.90;;;;;;5079766;28;20134;-85
2023/03/27 04:52:08;;;;;;;0.00;0.00;;;2.80;99.90;;;;;;5080483;28;20083;-84
2023/03/27 04:54:34;;;;;;;0.00;0.00;;;2.90;99.90;;;;;;5096388;28;20079;-85
2023/03/27 04:57:02;;;;;;;0.00;0.00;;;2.90;99.90;;;;;;5046685;28;20097;-84
2023/03/27 04:59:32;;;;;;;0.00;0.00;;;1.60;99.90;;;;;;5096588;28;20416;-85
2023/03/27 05:01:58;;;;;;;0.10;0.10;;;1.60;99.90;;;;;;5087467;28;20048;-84
2023/03/27 05:04:27;;;;;;;0.00;0.00;;;1.60;99.90;;;;;;5097452;28;20047;-86
2023/03/27 05:06:54;;;;;;;0.15;0.03;;;2.70;99.90;;;;;;5079581;28;20058;-85
2023/03/27 05:09:20;;;;;;;0.00;0.00;;;1.50;99.90;;;;;;5096512;28;20090;-84
2023/03/27 05:11:48;;;;;;;0.10;0.00;;;1.50;99.90;;;;;;5079195;28;20047;-85
2023/03/27 05:14:22;;;;;;;0.85;0.85;;;1.50;99.90;;;;;;5063126;28;20070;-85
2023/03/27 05:16:51;;;;;;;0.00;0.00;;;1.40;99.90;;;;;;5078900;28;20071;-84
2023/03/27 05:19:21;;;;;;;0.00;0.00;;;1.40;99.90;;;;;;5078951;28;20482;-84
2023/03/27 05:21:47;;;;;;;0.00;0.00;;;1.40;99.90;;;;;;5053877;28;20063;-85
2023/03/27 05:24:14;;;;;;;0.00;0.00;;;1.40;99.90;;;;;;5079455;28;20044;-84
2023/03/27 05:26:39;;;;;;;0.00;0.00;;;1.50;99.90;;;;;;5078511;28;20051;-84
2023/03/27 05:29:07;;;;;;;0.00;0.00;;;2.70;99.90;;;;;;5096188;28;20043;-85
2023/03/27 05:31:34;;;;;;;0.00;0.00;;;2.10;99.90;;;;;;5096039;28;20478;-85
2023/03/27 05:34:00;;;;;;;0.05;0.05;;;1.90;99.90;;;;;;5095987;28;20401;-85
2023/03/27 05:36:28;;;;;;;0.10;0.10;;;0.80;99.90;;;;;;5096037;28;20039;-85
2023/03/27 05:38:56;;;;;;;0.15;0.10;;;2.90;99.90;;;;;;5078992;28;20062;-85
2023/03/27 05:41:23;;;;;;;0.00;0.00;;;1.50;99.90;;;;;;5062953;28;20427;-85
2023/03/27 05:44:14;;;;;;;0.20;0.20;;;2.70;99.90;;;;;;5061995;28;20481;-90
2023/03/27 05:46:42;;;;;;;0.00;0.00;;;2.10;99.90;;;;;;5065255;28;20046;-89
2023/03/27 05:49:08;;;;;;;0.55;0.13;;;1.60;99.90;;;;;;5078536;28;20058;-89
2023/03/27 05:51:34;;;;;;;0.10;0.10;;;1.50;99.90;;;;;;5078534;28;20052;-89
2023/03/27 05:54:06;;;;;;;0.00;0.00;;;1.70;99.90;;;;;;5078459;28;20044;-89
2023/03/27 05:56:34;;;;;;;0.00;0.00;;;1.70;99.90;;;;;;5046627;28;20051;-90
2023/03/27 05:59:01;;;;;;;0.10;0.10;;;1.00;99.90;;;;;;5078857;28;20050;-87
2023/03/27 06:01:26;;;;;;;0.10;0.08;;;1.60;99.90;;;;;;5079032;28;20101;-88
2023/03/27 06:03:55;;;;;;;0.00;0.00;;;2.10;99.90;;;;;;5078842;28;20075;-87
2023/03/27 06:06:21;;;;;;;0.00;0.00;;;1.80;99.90;;;;;;5079044;28;20461;-87
2023/03/27 06:08:50;;;;;;;0.00;0.00;;;2.00;99.90;;;;;;5078397;28;20051;-85
2023/03/27 06:11:15;;;;;;;0.00;0.00;;;2.00;99.90;;;;;;5078726;28;20079;-85
2023/03/27 06:13:42;;;;;;;0.00;0.00;;;3.30;99.90;;;;;;5061519;28;20078;-90
2023/03/27 06:16:07;;;;;;;0.00;0.00;;;3.70;99.90;;;;;;5095603;28;20040;-83
2023/03/27 06:18:33;;;;;;;0.00;0.00;;;2.60;99.90;;;;;;5044516;28;20070;-84
2023/03/27 06:20:59;;;;;;;0.00;0.00;;;2.90;99.90;;;;;;5077742;28;20433;-85
2023/03/27 06:23:26;;;;;;;0.00;0.00;;;3.30;99.90;;;;;;5095274;28;20055;-84
2023/03/27 06:25:52;;;;;;;0.00;0.00;;;3.70;99.90;;;;;;5078103;28;20050;-85
2023/03/27 06:28:19;;;;;;;0.00;0.00;;;3.90;99.90;;;;;;5061959;28;20474;-85
2023/03/27 06:30:46;;;;;;;0.00;0.00;;;4.40;99.90;;;;;;5094931;28;20461;-85
2023/03/27 06:33:13;;;;;;;0.00;0.00;;;4.60;99.90;;;;;;5078447;28;20186;-84
2023/03/27 06:35:40;;;;;;;1.17;0.10;;;4.90;99.90;;;;;;5077926;28;20060;-84
2023/03/27 06:38:07;;;;;;;0.00;0.00;;;5.10;99.90;;;;;;5078424;28;20046;-84
2023/03/27 06:40:34;;;;;;;0.10;0.00;;;5.30;99.90;;;;;;5078008;28;20051;-84
2023/03/27 06:43:08;;;;;;;0.00;0.00;;;5.50;99.90;;;;;;5077082;28;20473;-84
2023/03/27 06:45:36;;;;;;;0.00;0.00;;;5.70;99.90;;;;;;5094505;28;20493;-84
2023/03/27 06:48:04;;;;;;;0.00;0.00;;;5.80;99.90;;;;;;5077028;28;20474;-85
2023/03/27 06:50:31;;;;;;;0.00;0.00;;;5.90;99.90;;;;;;5094570;28;20047;-84
2023/03/27 06:52:58;;;;;;;0.10;0.00;;;5.90;99.90;;;;;;5077049;28;20075;-84
2023/03/27 06:55:26;;;;;;;0.00;0.00;;;6.00;99.90;;;;;;5078210;28;20055;-85
2023/03/27 06:57:54;;;;;;;0.00;0.00;;;6.10;99.90;;;;;;5078002;28;20482;-83
2023/03/27 07:00:27;;;;;;;0.00;0.00;;;6.80;99.90;;;;;;5098080;28;20055;-83
2023/03/27 07:02:55;;;;;;;0.00;0.00;;;6.60;99.90;;;;;;5095012;28;20082;-83
2023/03/27 07:05:22;;;;;;;0.10;0.10;;;6.20;99.90;;;;;;5077790;28;20409;-82
2023/03/27 07:07:47;;;;;;;;;;;6.20;99.90;;;;;;5060755;28;20058;-83
2023/03/27 07:10:14;;;;;;;0.00;0.00;;;6.20;99.90;;;;;;5077883;28;19919;-85
2023/03/27 07:12:47;;;;;;;0.00;0.00;;;6.40;99.90;;;;;;5077208;28;20486;-85
2023/03/27 07:15:13;;;;;;;1.15;0.70;;;6.60;99.90;;;;;;5094587;28;20048;-86
2023/03/27 07:17:43;;;;;;;0.00;0.00;;;6.80;99.90;;;;;;5061068;28;20051;-86
2023/03/27 07:20:12;;;;;;;0.00;0.00;;;8.10;99.90;;;;;;5060362;28;20056;-86
2023/03/27 07:22:42;;;;;;;0.15;0.00;;;7.10;99.90;;;;;;5060988;28;20048;-86
2023/03/27 07:25:08;;;;;;;0.00;0.00;;;7.30;99.90;;;;;;5060575;28;20048;-85
2023/03/27 07:27:37;;;;;;;0.00;0.00;;;7.30;99.90;;;;;;5077585;28;20083;-86
2023/03/27 07:30:07;;;;;;;0.10;0.00;;;7.40;99.90;;;;;;5079623;28;20047;-86
2023/03/27 07:32:36;;;;;;;0.00;0.00;;;7.50;99.90;;;;;;5098064;28;20093;-86
2023/03/27 07:35:04;;;;;;;0.10;0.10;;;7.40;99.90;;;;;;5064680;28;20132;-86
2023/03/27 07:37:35;;;;;;;0.00;0.00;;;7.50;99.90;;;;;;5081238;28;20047;-86
2023/03/27 07:40:00;;;;;;;0.32;0.00;;;6.90;99.90;;;;;;5064985;28;20051;-87
2023/03/27 07:42:27;;;;;;;0.10;0.10;;;7.80;99.90;;;;;;5081242;28;20044;-86
2023/03/27 07:44:53;;;;;;;0.15;0.15;;;7.90;99.90;;;;;;5048057;28;20047;-86
2023/03/27 07:47:18;;;;;;;0.03;0.03;;;8.10;99.90;;;;;;5081362;28;20043;-86
2023/03/27 07:49:47;;;;;;;0.00;0.00;;;8.20;99.90;;;;;;5097744;28;20044;-87
2023/03/27 07:52:14;;;;;;;0.00;0.00;;;8.30;99.90;;;;;;5080919;28;20351;-86
2023/03/27 07:54:39;;;;;;;;;;;8.30;99.90;;;;;;5064542;28;20097;-86
2023/03/27 07:57:05;;;;;;;0.10;0.10;;;8.60;99.90;;;;;;5080455;28;20606;-85
2023/03/27 07:59:33;;;;;;;0.00;0.00;;;8.70;99.90;;;;;;5080785;28;20141;-84
2023/03/27 08:02:00;;;;;;;0.00;0.00;;;8.50;99.90;;;;;;5063941;28;20142;-84
2023/03/27 08:04:26;;;;;;;0.00;0.00;;;8.00;99.90;;;;;;5048160;28;20075;-84
2023/03/27 08:06:53;;;;;;;0.00;0.00;;;7.50;99.90;;;;;;5080664;28;20101;-84
2023/03/27 08:09:20;;;;;;;0.00;0.00;;;7.00;99.90;;;;;;5081155;28;20048;-86
2023/03/27 08:11:46;;;;;;;0.00;0.00;;;6.50;99.90;;;;;;5097841;28;20040;-86
2023/03/27 08:14:12;;;;;;;0.00;0.00;;;6.50;99.90;;;;;;5063769;28;20047;-86
2023/03/27 08:16:38;;;;;;;0.00;0.00;;;6.50;99.90;;;;;;5081477;28;20047;-84
2023/03/27 08:19:05;;;;;;;0.00;0.00;;;6.80;99.90;;;;;;5062979;28;20048;-83
2023/03/27 08:21:32;;;;;;;1.65;0.10;;;7.20;99.90;;;;;;5080299;28;20051;-82
2023/03/27 08:24:00;;;;;;;0.00;0.00;;;7.50;99.90;;;;;;5096629;28;20048;-83
2023/03/27 08:26:26;;;;;;;0.05;0.00;;;7.80;99.90;;;;;;5080676;28;20086;-82
2023/03/27 08:28:52;;;;;;;;;;;7.90;99.90;;;;;;5097708;28;20473;-85
2023/03/27 08:31:19;;;;;;;0.00;0.00;;;8.10;99.90;;;;;;5096890;28;20262;-83
2023/03/27 08:33:45;;;;;;;0.00;0.00;;;8.20;99.90;;;;;;5080273;28;20051;-83
2023/03/27 08:36:13;;;;;;;0.10;0.10;;;8.20;99.90;;;;;;5079974;28;20633;-84
2023/03/27 08:38:40;;;;;;;0.10;0.00;;;8.10;99.90;;;;;;5097465;28;20048;-86
2023/03/27 08:41:16;;;;;;;0.00;0.00;;;8.10;99.90;;;;;;5078778;28;20501;-84
2023/03/27 08:43:43;;;;;;;0.15;0.15;;;8.20;99.90;;;;;;5065161;28;20043;-84
2023/03/27 08:46:20;;;;;;;0.00;0.00;;;8.20;99.90;;;;;;5097059;28;20142;-84
2023/03/27 08:49:06;;;;;;;0.67;0.30;;;8.10;99.90;;;;;;5096752;28;20490;-83
2023/03/27 08:51:39;;;;;;;0.43;0.10;;;8.20;99.90;;;;;;5085793;28;20052;-84
2023/03/27 08:54:16;;;;;;;0.00;0.00;;;8.50;99.90;;;;;;5079259;28;20044;-84
2023/03/27 08:56:41;;;;;;;0.00;0.00;;;8.10;99.90;;;;;;5096609;28;20047;-83
2023/03/27 08:59:14;;;;;;;0.20;0.00;;;8.70;99.90;;;;;;5096111;28;20051;-84
2023/03/27 09:01:53;;;;;;;0.00;0.00;;;8.80;99.90;;;;;;5079990;28;20059;-83
2023/03/27 09:04:30;;;;;;;0.00;0.00;;;8.80;99.90;;;;;;5096634;28;20044;-84
2023/03/27 09:07:17;;;;;;;0.00;0.00;;;8.90;99.90;;;;;;5080046;28;20047;-83
2023/03/27 09:09:58;;;;;;;0.00;0.00;;;8.90;99.90;;;;;;5080198;28;20048;-83
2023/03/27 09:12:47;;;;;;;0.00;0.00;;;8.90;99.90;;;;;;5097187;28;20051;-82
2023/03/27 09:15:24;;;;;;;0.17;0.10;;;9.00;99.90;;;;;;5079618;28;20039;-84
2023/03/27 09:18:22;;;;;;;0.10;0.10;;;9.10;99.90;;;;;;5096775;28;20051;-83
2023/03/27 09:21:14;;;;;;;1.40;0.00;;;9.20;99.90;;;;;;5078658;28;20066;-84
2023/03/27 09:23:45;;;;;;;0.00;0.00;;;8.10;99.90;;;;;;5096151;28;20374;-83
2023/03/27 09:26:25;;;;;;;0.00;0.00;;;8.50;99.90;;;;;;5095397;28;20051;-84
2023/03/27 09:29:15;;;;;;;1.77;0.03;;;8.70;99.90;;;;;;5095628;28;20036;-84
2023/03/27 09:31:46;;;;;;;0.00;0.00;;;8.90;99.90;;;;;;5079053;28;20048;-86
2023/03/27 09:34:17;;;;;;;0.10;0.10;;;9.10;99.90;;;;;;5078310;28;20504;-85
2023/03/27 09:36:46;;;;;;;0.47;0.17;;;9.10;99.90;;;;;;5096187;28;20050;-85
2023/03/27 09:39:16;;;;;;;0.10;0.00;;;8.40;99.90;;;;;;5078500;28;20511;-85
2023/03/27 09:41:47;;;;;;;0.00;0.00;;;9.30;99.90;;;;;;5078901;28;20503;-84
2023/03/27 09:44:34;;;;;;;0.00;0.00;;;9.40;99.90;;;;;;5078810;28;20130;-85
2023/03/27 09:47:23;;;;;;;0.30;0.10;;;9.40;99.90;;;;;;5079046;28;20090;-85
2023/03/27 09:50:00;;;;;;;0.00;0.00;;;9.50;99.90;;;;;;5095925;28;20493;-86
2023/03/27 09:52:38;;;;;;;0.00;0.00;;;9.40;99.90;;;;;;5113540;28;20158;-86
2023/03/27 09:55:22;;;;;;;0.00;0.00;;;9.40;99.90;;;;;;5078698;28;20040;-86
2023/03/27 09:57:50;;;;;;;0.00;0.00;;;9.40;99.90;;;;;;5079100;28;20047;-86
2023/03/27 10:00:29;;;;;;;0.00;0.00;;;9.70;99.90;;;;;;5095371;28;20047;-86
2023/03/27 10:03:04;;;;;;;0.00;0.00;;;9.50;99.90;;;;;;5078730;28;20240;-86
2023/03/27 10:05:31;;;;;;;0.00;0.00;;;9.20;99.90;;;;;;5078548;28;20043;-84
2023/03/27 10:07:58;;;;;;;1.35;0.30;;;8.80;99.90;;;;;;5062180;28;20066;-87
2023/03/27 10:10:26;;;;;;;;;;;8.80;99.90;;;;;;5078805;28;20050;-86
2023/03/27 10:12:58;;;;;;;0.00;0.00;;;9.10;99.90;;;;;;5078799;28;19919;-86
2023/03/27 10:15:38;;;;;;;0.00;0.00;;;9.30;99.90;;;;;;5078362;28;20051;-86
2023/03/27 10:18:28;;;;;;;0.00;0.00;;;9.50;99.90;;;;;;5078701;28;20050;-86
2023/03/27 10:20:58;;;;;;;0.00;0.00;;;9.70;99.90;;;;;;5078396;28;20051;-86
2023/03/27 10:23:29;;;;;;;0.35;0.00;;;9.90;99.90;;;;;;5078290;28;20135;-86
2023/03/27 10:26:00;;;;;;;0.00;0.00;;;10.30;99.90;;;;;;5078821;28;20046;-86
2023/03/27 10:28:34;;;;;;;0.90;0.00;;;10.20;99.90;;;;;;5095170;28;20051;-86
2023/03/27 10:31:08;;;;;;;0.00;0.00;;;10.30;99.90;;;;;;5078725;28;20055;-86
2023/03/27 10:33:36;;;;;;;0.00;0.00;;;9.60;99.90;;;;;;5078280;28;20047;-87
2023/03/27 10:36:05;;;;;;;0.20;0.10;;;8.90;99.90;;;;;;5078655;28;20105;-87
2023/03/27 10:38:33;;;;;;;0.10;0.00;;;8.20;99.90;;;;;;5094224;28;20116;-89
2023/03/27 10:41:04;;;;;;;0.90;0.15;;;7.90;99.90;;;;;;5096584;28;20052;-86
2023/03/27 10:43:36;;;;;;;0.00;0.00;;;8.00;99.90;;;;;;5083577;28;20378;-86
2023/03/27 10:46:11;;;;;;;0.10;0.10;;;8.40;99.90;;;;;;5095047;28;20051;-87
2023/03/27 10:48:53;;;;;;;0.00;0.00;;;8.40;99.90;;;;;;5094993;28;20046;-86
2023/03/27 10:51:24;;;;;;;0.52;0.20;;;8.70;99.90;;;;;;5077763;28;20124;-87
2023/03/27 10:54:04;;;;;;;0.57;0.57;;;8.40;99.90;;;;;;5095010;28;20093;-86
2023/03/27 10:56:46;;;;;;;0.00;0.00;;;8.50;99.90;;;;;;5078016;28;20058;-86
2023/03/27 10:59:23;;;;;;;0.00;0.00;;;8.70;99.90;;;;;;5078225;28;20138;-85
2023/03/27 11:01:54;;;;;;;0.00;0.00;;;8.80;99.90;;;;;;5112981;28;20044;-89
2023/03/27 11:04:42;;;;;;;0.00;0.00;;;8.60;99.90;;;;;;5079403;28;20047;-88
2023/03/27 11:07:25;;;;;;;0.60;0.00;;;8.70;99.90;;;;;;5082307;28;20429;-88
2023/03/27 11:10:01;;;;;;;0.00;0.00;;;8.90;99.90;;;;;;5082525;28;20127;-88
2023/03/27 11:12:29;;;;;;;0.00;0.00;;;8.80;99.90;;;;;;5081822;28;20193;-88
2023/03/27 11:15:21;;;;;;;0.00;0.00;;;8.50;99.90;;;;;;5065305;28;20039;-87
2023/03/27 11:17:59;;;;;;;0.00;0.00;;;8.20;99.90;;;;;;5082269;28;20051;-87
2023/03/27 11:20:34;;;;;;;0.03;0.03;;;8.30;99.90;;;;;;5094783;28;20056;-87
2023/03/27 11:23:11;;;;;;;0.00;0.00;;;8.60;99.90;;;;;;5078889;28;20098;-88
2023/03/27 11:25:52;;;;;;;1.00;0.20;;;8.90;99.90;;;;;;5096690;28;20040;-88
2023/03/27 11:29:04;;;;;;;0.00;0.00;;;9.20;99.90;;;;;;5081431;28;20044;-88
2023/03/27 11:31:38;;;;;;;0.00;0.00;;;9.10;99.90;;;;;;5065900;28;20091;-88
2023/03/27 11:34:27;;;;;;;0.00;0.00;;;9.70;99.90;;;;;;5081535;28;20401;-88
2023/03/27 11:37:21;;;;;;;0.00;0.00;;;9.40;99.90;;;;;;5081428;28;20497;-87
2023/03/27 11:40:15;;;;;;;0.00;0.00;;;9.10;99.90;;;;;;5081656;28;20052;-87
2023/03/27 11:42:44;;;;;;;0.98;0.20;;;9.40;99.90;;;;;;5081291;28;20104;-88
2023/03/27 11:45:15;;;;;;;0.00;0.00;;;9.40;99.90;;;;;;5064170;28;20044;-89
2023/03/27 11:48:11;;;;;;;0.00;0.00;;;9.60;99.90;;;;;;5080949;28;20116;-84
2023/03/27 11:50:49;;;;;;;0.00;0.00;;;9.90;99.90;;;;;;5081007;28;20406;-87
2023/03/27 11:53:26;;;;;;;0.00;0.00;;;9.50;99.90;;;;;;5081236;28;20043;-87
2023/03/27 11:56:09;;;;;;;0.00;0.00;;;7.90;99.90;;;;;;5081276;28;20051;-86
2023/03/27 11:58:57;;;;;;;0.00;0.00;;;8.10;99.90;;;;;;5080953;28;20043;-87
2023/03/27 12:01:48;;;;;;;0.00;0.00;;;7.70;99.90;;;;;;5081091;28;20048;-89
2023/03/27 12:04:35;;;;;;;0.20;0.20;;;7.70;99.90;;;;;;5098075;28;20036;-88
2023/03/27 12:07:04;;;;;;;0.00;0.00;;;7.90;99.90;;;;;;5080343;28;20056;-88
2023/03/27 12:09:51;;;;;;;0.28;0.15;;;8.10;99.90;;;;;;5080153;28;20087;-88
2023/03/27 12:12:35;;;;;;;0.00;0.00;;;8.20;99.90;;;;;;5098103;28;20083;-87
2023/03/27 12:15:44;;;;;;;0.82;0.28;;;8.60;99.90;;;;;;5080189;28;20382;-88
2023/03/27 12:18:22;;;;;;;0.00;0.00;;;9.00;99.90;;;;;;5071660;28;20074;-88
2023/03/27 12:20:53;;;;;;;0.00;0.00;;;9.40;99.90;;;;;;5079991;28;20055;-87
2023/03/27 12:24:00;;;;;;;0.10;0.10;;;9.70;99.90;;;;;;5080850;28;20130;-87
2023/03/27 12:26:41;;;;;;;0.10;0.10;;;9.90;99.90;;;;;;5094841;28;20105;-89
2023/03/27 12:29:22;;;;;;;0.00;0.00;;;9.90;99.90;;;;;;5080398;28;20040;-87
2023/03/27 12:32:20;;;;;;;0.00;0.00;;;9.60;99.90;;;;;;5097616;28;20131;-87
2023/03/27 12:35:02;;;;;;;0.00;0.00;;;9.20;99.90;;;;;;5086129;28;20099;-88
2023/03/27 12:37:46;;;;;;;0.00;0.00;;;8.90;99.90;;;;;;5080104;28;20043;-87
2023/03/27 12:40:28;;;;;;;0.00;0.00;;;9.00;99.90;;;;;;5080522;28;20040;-87
2023/03/27 12:43:21;;;;;;;0.10;0.00;;;9.40;99.90;;;;;;5080658;28;20058;-89
2023/03/27 12:46:08;;;;;;;0.68;0.20;;;9.60;99.90;;;;;;5079903;28;20642;-87
2023/03/27 12:49:07;;;;;;;0.40;0.40;;;9.80;99.90;;;;;;5079368;28;20039;-88
2023/03/27 12:52:11;;;;;;;0.00;0.00;;;9.90;99.90;;;;;;5059291;28;20391;-88
2023/03/27 12:54:38;;;;;;;0.08;0.08;;;10.20;99.90;;;;;;5079622;28;20551;-88
2023/03/27 12:57:07;;;;;;;0.20;0.20;;;10.50;99.90;;;;;;5079767;28;20490;-88
2023/03/27 12:59:57;;;;;;;0.00;0.00;;;10.40;99.90;;;;;;5079436;28;20481;-88
2023/03/27 13:02:49;;;;;;;1.25;0.10;;;10.60;99.90;;;;;;5097080;28;20047;-88
2023/03/27 13:05:40;;;;;;;0.00;0.00;;;10.50;99.90;;;;;;5096630;28;20130;-87
2023/03/27 13:08:20;;;;;;;0.08;0.00;;;10.40;99.90;;;;;;5080093;28;20442;-88
2023/03/27 13:11:10;;;;;;;0.00;0.00;;;9.70;99.90;;;;;;5079599;28;20047;-88
2023/03/27 13:13:53;;;;;;;0.00;0.00;;;9.10;99.90;;;;;;5079393;28;20040;-88
2023/03/27 13:16:42;;;;;;;0.00;0.00;;;9.00;99.90;;;;;;5080100;28;20048;-87
2023/03/27 13:19:17;;;;;;;0.00;0.00;;;9.30;99.90;;;;;;5079968;28;20118;-87
2023/03/27 13:22:18;;;;;;;0.00;0.00;;;9.50;99.90;;;;;;5078424;28;20101;-87
2023/03/27 13:25:01;;;;;;;0.00;0.00;;;8.80;99.90;;;;;;5071802;28;20067;-88
2023/03/27 13:27:36;;;;;;;0.00;0.00;;;9.70;99.90;;;;;;5079415;28;20407;-87
2023/03/27 13:30:04;;;;;;;0.10;0.10;;;9.80;99.90;;;;;;5079465;28;20066;-87
2023/03/27 13:32:40;;;;;;;0.00;0.00;;;10.00;99.90;;;;;;5062973;28;20042;-87